sensor_id;sensor_type;location;lat;lon;timestamp;P1;durP1;ratioP1;P2;durP2;ratioP2
47289;SDS011;33197;52.524;13.444;2023-08-06T00:01:03;17.55;;;8.45;;
47289;SDS011;33197;52.524;13.444;2023-08-06T00:03:30;12.68;;;7.00;;
47289;SDS011;33197;52.524;13.444;2023-08-06T00:05:58;11.57;;;7.63;;
47289;SDS011;33197;52.524;13.444;2023-08-06T00:08:25;9.43;;;7.32;;
47289;SDS011;33197;52.524;13.444;2023-08-06T00:10:53;8.00;;;6.45;;
47289;SDS011;33197;52.524;13.444;2023-08-06T00:13:20;9.30;;;6.95;;
47289;SDS011;33197;52.524;13.444;2023-08-06T00:15:47;8.32;;;7.13;;
47289;SDS011;33197;52.524;13.444;2023-08-06T00:18:14;10.15;;;7.25;;
47289;SDS011;33197;52.524;13.444;2023-08-06T00:20:42;10.80;;;7.20;;
47289;SDS011;33197;52.524;13.444;2023-08-06T00:23:09;7.90;;;7.15;;
47289;SDS011;33197;52.524;13.444;2023-08-06T00:25:36;10.75;;;7.80;;
47289;SDS011;33197;52.524;13.444;2023-08-06T00:28:04;9.65;;;6.88;;
47289;SDS011;33197;52.524;13.444;2023-08-06T00:30:31;7.53;;;6.65;;
47289;SDS011;33197;52.524;13.444;2023-08-06T00:32:58;8.98;;;8.05;;
47289;SDS011;33197;52.524;13.444;2023-08-06T00:35:26;8.88;;;7.57;;
47289;SDS011;33197;52.524;13.444;2023-08-06T00:37:53;8.20;;;7.32;;
47289;SDS011;33197;52.524;13.444;2023-08-06T00:40:20;8.57;;;7.78;;
47289;SDS011;33197;52.524;13.444;2023-08-06T00:42:49;8.98;;;6.95;;
47289;SDS011;33197;52.524;13.444;2023-08-06T00:45:16;11.63;;;7.82;;
47289;SDS011;33197;52.524;13.444;2023-08-06T00:47:44;8.32;;;6.60;;
47289;SDS011;33197;52.524;13.444;2023-08-06T00:50:12;8.73;;;6.80;;
47289;SDS011;33197;52.524;13.444;2023-08-06T00:52:40;7.72;;;6.65;;
47289;SDS011;33197;52.524;13.444;2023-08-06T00:55:07;10.27;;;8.38;;
47289;SDS011;33197;52.524;13.444;2023-08-06T00:57:35;9.77;;;7.25;;
47289;SDS011;33197;52.524;13.444;2023-08-06T01:00:02;12.43;;;8.07;;
47289;SDS011;33197;52.524;13.444;2023-08-06T01:02:31;7.68;;;6.85;;
47289;SDS011;33197;52.524;13.444;2023-08-06T01:04:58;8.55;;;7.65;;
47289;SDS011;33197;52.524;13.444;2023-08-06T01:10:39;8.93;;;7.75;;
47289;SDS011;33197;52.524;13.444;2023-08-06T01:13:45;9.55;;;8.60;;
47289;SDS011;33197;52.524;13.444;2023-08-06T01:16:15;9.70;;;7.10;;
47289;SDS011;33197;52.524;13.444;2023-08-06T01:18:47;10.45;;;6.97;;
47289;SDS011;33197;52.524;13.444;2023-08-06T01:21:16;11.13;;;8.02;;
47289;SDS011;33197;52.524;13.444;2023-08-06T01:23:45;9.10;;;7.50;;
47289;SDS011;33197;52.524;13.444;2023-08-06T01:29:17;9.30;;;8.27;;
47289;SDS011;33197;52.524;13.444;2023-08-06T01:31:50;8.70;;;7.88;;
47289;SDS011;33197;52.524;13.444;2023-08-06T01:34:22;10.40;;;8.13;;
47289;SDS011;33197;52.524;13.444;2023-08-06T01:36:51;11.95;;;8.50;;
47289;SDS011;33197;52.524;13.444;2023-08-06T01:39:18;9.70;;;7.90;;
47289;SDS011;33197;52.524;13.444;2023-08-06T01:41:48;9.65;;;8.65;;
47289;SDS011;33197;52.524;13.444;2023-08-06T01:44:16;8.00;;;7.20;;
47289;SDS011;33197;52.524;13.444;2023-08-06T01:46:44;9.80;;;7.82;;
47289;SDS011;33197;52.524;13.444;2023-08-06T01:49:11;8.52;;;7.70;;
47289;SDS011;33197;52.524;13.444;2023-08-06T01:51:38;9.18;;;7.38;;
47289;SDS011;33197;52.524;13.444;2023-08-06T01:54:06;8.52;;;7.63;;
47289;SDS011;33197;52.524;13.444;2023-08-06T01:56:33;9.20;;;7.95;;
47289;SDS011;33197;52.524;13.444;2023-08-06T01:59:00;9.20;;;7.85;;
47289;SDS011;33197;52.524;13.444;2023-08-06T02:01:31;8.65;;;7.85;;
47289;SDS011;33197;52.524;13.444;2023-08-06T02:03:58;8.57;;;7.72;;
47289;SDS011;33197;52.524;13.444;2023-08-06T02:06:25;9.00;;;7.97;;
47289;SDS011;33197;52.524;13.444;2023-08-06T02:08:53;9.65;;;8.50;;
47289;SDS011;33197;52.524;13.444;2023-08-06T02:11:20;10.23;;;8.38;;
47289;SDS011;33197;52.524;13.444;2023-08-06T02:13:47;9.75;;;8.77;;
47289;SDS011;33197;52.524;13.444;2023-08-06T02:16:15;9.82;;;8.80;;
47289;SDS011;33197;52.524;13.444;2023-08-06T02:18:42;11.27;;;8.90;;
47289;SDS011;33197;52.524;13.444;2023-08-06T02:21:09;9.30;;;8.48;;
47289;SDS011;33197;52.524;13.444;2023-08-06T02:23:36;8.77;;;7.88;;
47289;SDS011;33197;52.524;13.444;2023-08-06T02:26:04;9.10;;;8.00;;
47289;SDS011;33197;52.524;13.444;2023-08-06T02:28:32;10.00;;;8.73;;
47289;SDS011;33197;52.524;13.444;2023-08-06T02:30:59;9.73;;;8.82;;
47289;SDS011;33197;52.524;13.444;2023-08-06T02:33:27;9.00;;;8.13;;
47289;SDS011;33197;52.524;13.444;2023-08-06T02:36:01;10.35;;;9.20;;
47289;SDS011;33197;52.524;13.444;2023-08-06T02:38:31;9.05;;;7.55;;
47289;SDS011;33197;52.524;13.444;2023-08-06T02:40:58;9.73;;;8.80;;
47289;SDS011;33197;52.524;13.444;2023-08-06T02:43:26;8.77;;;7.88;;
47289;SDS011;33197;52.524;13.444;2023-08-06T02:45:56;9.32;;;7.72;;
47289;SDS011;33197;52.524;13.444;2023-08-06T02:48:24;11.65;;;8.02;;
47289;SDS011;33197;52.524;13.444;2023-08-06T02:50:52;8.57;;;7.68;;
47289;SDS011;33197;52.524;13.444;2023-08-06T02:53:19;9.85;;;8.02;;
47289;SDS011;33197;52.524;13.444;2023-08-06T02:55:47;9.13;;;7.97;;
47289;SDS011;33197;52.524;13.444;2023-08-06T02:58:14;9.30;;;8.40;;
47289;SDS011;33197;52.524;13.444;2023-08-06T03:00:42;10.73;;;8.02;;
47289;SDS011;33197;52.524;13.444;2023-08-06T03:03:11;8.00;;;7.20;;
47289;SDS011;33197;52.524;13.444;2023-08-06T03:05:38;7.47;;;6.78;;
47289;SDS011;33197;52.524;13.444;2023-08-06T03:08:05;8.63;;;7.63;;
47289;SDS011;33197;52.524;13.444;2023-08-06T03:10:32;11.38;;;8.20;;
47289;SDS011;33197;52.524;13.444;2023-08-06T03:12:59;8.48;;;7.65;;
47289;SDS011;33197;52.524;13.444;2023-08-06T03:15:27;8.48;;;7.47;;
47289;SDS011;33197;52.524;13.444;2023-08-06T03:17:55;9.20;;;7.43;;
47289;SDS011;33197;52.524;13.444;2023-08-06T03:20:23;11.70;;;8.07;;
47289;SDS011;33197;52.524;13.444;2023-08-06T03:22:50;9.50;;;8.20;;
47289;SDS011;33197;52.524;13.444;2023-08-06T03:25:17;11.48;;;8.23;;
47289;SDS011;33197;52.524;13.444;2023-08-06T03:27:44;10.15;;;8.50;;
47289;SDS011;33197;52.524;13.444;2023-08-06T03:30:12;9.43;;;7.93;;
47289;SDS011;33197;52.524;13.444;2023-08-06T03:32:39;8.73;;;7.85;;
47289;SDS011;33197;52.524;13.444;2023-08-06T03:35:07;11.95;;;8.07;;
47289;SDS011;33197;52.524;13.444;2023-08-06T03:37:34;11.85;;;8.68;;
47289;SDS011;33197;52.524;13.444;2023-08-06T03:40:01;9.82;;;7.63;;
47289;SDS011;33197;52.524;13.444;2023-08-06T03:42:29;10.32;;;8.68;;
47289;SDS011;33197;52.524;13.444;2023-08-06T03:44:57;8.55;;;7.75;;
47289;SDS011;33197;52.524;13.444;2023-08-06T03:47:24;9.80;;;8.80;;
47289;SDS011;33197;52.524;13.444;2023-08-06T03:49:51;9.05;;;8.15;;
47289;SDS011;33197;52.524;13.444;2023-08-06T03:52:18;8.15;;;7.28;;
47289;SDS011;33197;52.524;13.444;2023-08-06T03:54:45;8.25;;;7.45;;
47289;SDS011;33197;52.524;13.444;2023-08-06T03:57:13;9.38;;;8.00;;
47289;SDS011;33197;52.524;13.444;2023-08-06T03:59:40;8.52;;;7.70;;
47289;SDS011;33197;52.524;13.444;2023-08-06T04:02:09;9.18;;;8.23;;
47289;SDS011;33197;52.524;13.444;2023-08-06T04:04:37;9.85;;;8.85;;
47289;SDS011;33197;52.524;13.444;2023-08-06T04:07:04;10.55;;;8.77;;
47289;SDS011;33197;52.524;13.444;2023-08-06T04:09:31;10.55;;;9.18;;
47289;SDS011;33197;52.524;13.444;2023-08-06T04:11:59;9.68;;;8.68;;
47289;SDS011;33197;52.524;13.444;2023-08-06T04:14:28;9.48;;;8.52;;
47289;SDS011;33197;52.524;13.444;2023-08-06T04:16:55;9.05;;;8.15;;
47289;SDS011;33197;52.524;13.444;2023-08-06T04:19:22;9.70;;;8.75;;
47289;SDS011;33197;52.524;13.444;2023-08-06T04:21:50;10.43;;;9.10;;
47289;SDS011;33197;52.524;13.444;2023-08-06T04:24:18;11.20;;;8.55;;
47289;SDS011;33197;52.524;13.444;2023-08-06T04:26:45;10.13;;;8.32;;
47289;SDS011;33197;52.524;13.444;2023-08-06T04:29:12;8.80;;;8.00;;
47289;SDS011;33197;52.524;13.444;2023-08-06T04:31:39;9.27;;;8.40;;
47289;SDS011;33197;52.524;13.444;2023-08-06T04:34:07;8.93;;;8.02;;
47289;SDS011;33197;52.524;13.444;2023-08-06T04:36:36;8.55;;;7.72;;
47289;SDS011;33197;52.524;13.444;2023-08-06T04:39:03;10.68;;;7.75;;
47289;SDS011;33197;52.524;13.444;2023-08-06T04:41:30;8.80;;;7.97;;
47289;SDS011;33197;52.524;13.444;2023-08-06T04:43:57;8.80;;;7.90;;
47289;SDS011;33197;52.524;13.444;2023-08-06T04:46:25;10.07;;;8.57;;
47289;SDS011;33197;52.524;13.444;2023-08-06T04:48:52;10.02;;;8.80;;
47289;SDS011;33197;52.524;13.444;2023-08-06T04:51:19;9.05;;;7.93;;
47289;SDS011;33197;52.524;13.444;2023-08-06T04:53:46;11.65;;;8.32;;
47289;SDS011;33197;52.524;13.444;2023-08-06T04:56:14;9.45;;;8.57;;
47289;SDS011;33197;52.524;13.444;2023-08-06T04:58:41;9.45;;;8.48;;
47289;SDS011;33197;52.524;13.444;2023-08-06T05:01:08;10.27;;;8.10;;
47289;SDS011;33197;52.524;13.444;2023-08-06T05:03:36;8.85;;;7.95;;
47289;SDS011;33197;52.524;13.444;2023-08-06T05:06:03;8.80;;;8.00;;
47289;SDS011;33197;52.524;13.444;2023-08-06T05:08:30;9.25;;;8.30;;
47289;SDS011;33197;52.524;13.444;2023-08-06T05:10:58;10.68;;;8.13;;
47289;SDS011;33197;52.524;13.444;2023-08-06T05:13:25;9.38;;;8.45;;
47289;SDS011;33197;52.524;13.444;2023-08-06T05:15:55;10.48;;;8.18;;
47289;SDS011;33197;52.524;13.444;2023-08-06T05:18:22;7.97;;;7.28;;
47289;SDS011;33197;52.524;13.444;2023-08-06T05:20:50;9.05;;;7.80;;
47289;SDS011;33197;52.524;13.444;2023-08-06T05:23:17;9.32;;;8.40;;
47289;SDS011;33197;52.524;13.444;2023-08-06T05:25:44;8.75;;;7.20;;
47289;SDS011;33197;52.524;13.444;2023-08-06T05:28:11;8.23;;;7.50;;
47289;SDS011;33197;52.524;13.444;2023-08-06T05:30:39;8.75;;;7.95;;
47289;SDS011;33197;52.524;13.444;2023-08-06T05:33:09;8.55;;;7.47;;
47289;SDS011;33197;52.524;13.444;2023-08-06T05:35:36;8.98;;;7.53;;
47289;SDS011;33197;52.524;13.444;2023-08-06T05:38:03;7.82;;;7.03;;
47289;SDS011;33197;52.524;13.444;2023-08-06T05:40:32;10.43;;;8.43;;
47289;SDS011;33197;52.524;13.444;2023-08-06T05:43:00;8.23;;;7.45;;
47289;SDS011;33197;52.524;13.444;2023-08-06T05:45:27;8.80;;;7.78;;
47289;SDS011;33197;52.524;13.444;2023-08-06T05:47:55;8.38;;;6.90;;
47289;SDS011;33197;52.524;13.444;2023-08-06T05:50:25;9.48;;;7.55;;
47289;SDS011;33197;52.524;13.444;2023-08-06T05:52:52;8.63;;;7.18;;
47289;SDS011;33197;52.524;13.444;2023-08-06T05:55:20;8.05;;;7.25;;
47289;SDS011;33197;52.524;13.444;2023-08-06T05:57:47;8.45;;;7.65;;
47289;SDS011;33197;52.524;13.444;2023-08-06T06:00:14;7.20;;;6.50;;
47289;SDS011;33197;52.524;13.444;2023-08-06T06:02:41;9.00;;;7.68;;
47289;SDS011;33197;52.524;13.444;2023-08-06T06:05:09;7.78;;;6.93;;
47289;SDS011;33197;52.524;13.444;2023-08-06T06:07:36;7.57;;;6.88;;
47289;SDS011;33197;52.524;13.444;2023-08-06T06:10:03;8.07;;;7.28;;
47289;SDS011;33197;52.524;13.444;2023-08-06T06:12:31;9.73;;;6.70;;
47289;SDS011;33197;52.524;13.444;2023-08-06T06:14:58;7.93;;;7.13;;
47289;SDS011;33197;52.524;13.444;2023-08-06T06:17:28;8.20;;;7.00;;
47289;SDS011;33197;52.524;13.444;2023-08-06T06:19:56;7.63;;;6.75;;
47289;SDS011;33197;52.524;13.444;2023-08-06T06:22:23;8.95;;;7.43;;
47289;SDS011;33197;52.524;13.444;2023-08-06T06:24:50;7.50;;;6.50;;
47289;SDS011;33197;52.524;13.444;2023-08-06T06:27:17;8.02;;;7.20;;
47289;SDS011;33197;52.524;13.444;2023-08-06T06:29:45;7.32;;;6.63;;
47289;SDS011;33197;52.524;13.444;2023-08-06T06:32:12;7.70;;;6.95;;
47289;SDS011;33197;52.524;13.444;2023-08-06T06:34:39;7.78;;;6.40;;
47289;SDS011;33197;52.524;13.444;2023-08-06T06:37:06;7.35;;;6.57;;
47289;SDS011;33197;52.524;13.444;2023-08-06T06:39:34;8.88;;;7.20;;
47289;SDS011;33197;52.524;13.444;2023-08-06T06:42:01;8.68;;;6.88;;
47289;SDS011;33197;52.524;13.444;2023-08-06T06:44:28;8.77;;;7.65;;
47289;SDS011;33197;52.524;13.444;2023-08-06T06:46:55;7.35;;;6.50;;
47289;SDS011;33197;52.524;13.444;2023-08-06T06:49:23;8.38;;;7.47;;
47289;SDS011;33197;52.524;13.444;2023-08-06T06:51:50;7.80;;;7.10;;
47289;SDS011;33197;52.524;13.444;2023-08-06T06:54:18;7.20;;;6.50;;
47289;SDS011;33197;52.524;13.444;2023-08-06T06:56:45;8.43;;;7.60;;
47289;SDS011;33197;52.524;13.444;2023-08-06T06:59:12;8.15;;;7.13;;
47289;SDS011;33197;52.524;13.444;2023-08-06T07:01:39;7.15;;;6.45;;
47289;SDS011;33197;52.524;13.444;2023-08-06T07:04:07;8.43;;;5.95;;
47289;SDS011;33197;52.524;13.444;2023-08-06T07:06:34;7.82;;;5.28;;
47289;SDS011;33197;52.524;13.444;2023-08-06T07:09:01;5.97;;;5.38;;
47289;SDS011;33197;52.524;13.444;2023-08-06T07:11:29;7.53;;;5.82;;
47289;SDS011;33197;52.524;13.444;2023-08-06T07:13:56;6.22;;;5.57;;
47289;SDS011;33197;52.524;13.444;2023-08-06T07:16:27;5.50;;;5.00;;
47289;SDS011;33197;52.524;13.444;2023-08-06T07:18:54;6.57;;;5.68;;
47289;SDS011;33197;52.524;13.444;2023-08-06T07:21:21;5.30;;;4.80;;
47289;SDS011;33197;52.524;13.444;2023-08-06T07:23:48;5.53;;;4.95;;
47289;SDS011;33197;52.524;13.444;2023-08-06T07:26:17;6.13;;;5.53;;
47289;SDS011;33197;52.524;13.444;2023-08-06T07:28:44;6.65;;;5.85;;
47289;SDS011;33197;52.524;13.444;2023-08-06T07:31:12;6.30;;;5.70;;
47289;SDS011;33197;52.524;13.444;2023-08-06T07:33:40;5.40;;;4.90;;
47289;SDS011;33197;52.524;13.444;2023-08-06T07:36:07;6.63;;;5.90;;
47289;SDS011;33197;52.524;13.444;2023-08-06T07:38:38;6.43;;;5.82;;
47289;SDS011;33197;52.524;13.444;2023-08-06T07:41:06;6.65;;;6.03;;
47289;SDS011;33197;52.524;13.444;2023-08-06T07:43:33;6.70;;;5.82;;
47289;SDS011;33197;52.524;13.444;2023-08-06T07:46:02;6.03;;;5.53;;
47289;SDS011;33197;52.524;13.444;2023-08-06T07:48:30;7.25;;;6.43;;
47289;SDS011;33197;52.524;13.444;2023-08-06T07:50:57;8.10;;;7.38;;
47289;SDS011;33197;52.524;13.444;2023-08-06T07:53:24;9.13;;;6.75;;
47289;SDS011;33197;52.524;13.444;2023-08-06T07:55:56;7.07;;;6.18;;
47289;SDS011;33197;52.524;13.444;2023-08-06T07:58:24;7.47;;;6.78;;
47289;SDS011;33197;52.524;13.444;2023-08-06T08:00:52;7.70;;;7.07;;
47289;SDS011;33197;52.524;13.444;2023-08-06T08:03:19;8.05;;;7.35;;
47289;SDS011;33197;52.524;13.444;2023-08-06T08:05:47;11.77;;;7.20;;
47289;SDS011;33197;52.524;13.444;2023-08-06T08:08:14;7.32;;;6.63;;
47289;SDS011;33197;52.524;13.444;2023-08-06T08:10:41;8.95;;;8.13;;
47289;SDS011;33197;52.524;13.444;2023-08-06T08:13:09;8.70;;;7.80;;
47289;SDS011;33197;52.524;13.444;2023-08-06T08:15:36;9.43;;;7.82;;
47289;SDS011;33197;52.524;13.444;2023-08-06T08:18:04;9.23;;;8.30;;
47289;SDS011;33197;52.524;13.444;2023-08-06T08:20:31;9.05;;;7.45;;
47289;SDS011;33197;52.524;13.444;2023-08-06T08:22:59;10.40;;;8.82;;
47289;SDS011;33197;52.524;13.444;2023-08-06T08:25:30;9.18;;;8.27;;
47289;SDS011;33197;52.524;13.444;2023-08-06T08:27:58;11.25;;;9.25;;
47289;SDS011;33197;52.524;13.444;2023-08-06T08:30:25;10.70;;;9.55;;
47289;SDS011;33197;52.524;13.444;2023-08-06T08:32:53;8.30;;;7.47;;
47289;SDS011;33197;52.524;13.444;2023-08-06T08:35:20;9.95;;;8.95;;
47289;SDS011;33197;52.524;13.444;2023-08-06T08:37:48;9.77;;;8.73;;
47289;SDS011;33197;52.524;13.444;2023-08-06T08:40:15;8.05;;;7.25;;
47289;SDS011;33197;52.524;13.444;2023-08-06T08:42:43;9.38;;;8.07;;
47289;SDS011;33197;52.524;13.444;2023-08-06T08:45:14;8.55;;;7.75;;
47289;SDS011;33197;52.524;13.444;2023-08-06T08:47:41;10.63;;;8.85;;
47289;SDS011;33197;52.524;13.444;2023-08-06T08:50:13;9.02;;;7.80;;
47289;SDS011;33197;52.524;13.444;2023-08-06T08:52:42;8.88;;;8.07;;
47289;SDS011;33197;52.524;13.444;2023-08-06T08:55:12;9.82;;;8.63;;
47289;SDS011;33197;52.524;13.444;2023-08-06T08:57:42;9.65;;;8.85;;
47289;SDS011;33197;52.524;13.444;2023-08-06T09:00:11;9.93;;;8.95;;
47289;SDS011;33197;52.524;13.444;2023-08-06T09:02:38;9.57;;;8.68;;
47289;SDS011;33197;52.524;13.444;2023-08-06T09:05:06;10.25;;;8.55;;
47289;SDS011;33197;52.524;13.444;2023-08-06T09:07:35;10.68;;;9.68;;
47289;SDS011;33197;52.524;13.444;2023-08-06T09:10:10;10.23;;;8.02;;
47289;SDS011;33197;52.524;13.444;2023-08-06T09:12:40;10.02;;;9.00;;
47289;SDS011;33197;52.524;13.444;2023-08-06T09:15:08;10.70;;;9.05;;
47289;SDS011;33197;52.524;13.444;2023-08-06T09:17:36;10.27;;;9.18;;
47289;SDS011;33197;52.524;13.444;2023-08-06T09:20:11;12.23;;;10.85;;
47289;SDS011;33197;52.524;13.444;2023-08-06T09:22:39;10.30;;;9.35;;
47289;SDS011;33197;52.524;13.444;2023-08-06T09:25:08;17.48;;;9.05;;
47289;SDS011;33197;52.524;13.444;2023-08-06T09:27:37;10.55;;;9.32;;
47289;SDS011;33197;52.524;13.444;2023-08-06T09:30:05;10.25;;;9.13;;
47289;SDS011;33197;52.524;13.444;2023-08-06T09:32:46;10.95;;;9.77;;
47289;SDS011;33197;52.524;13.444;2023-08-06T09:35:17;10.27;;;9.27;;
47289;SDS011;33197;52.524;13.444;2023-08-06T09:37:45;10.90;;;9.90;;
47289;SDS011;33197;52.524;13.444;2023-08-06T09:40:28;10.10;;;8.82;;
47289;SDS011;33197;52.524;13.444;2023-08-06T09:42:57;9.95;;;8.95;;
47289;SDS011;33197;52.524;13.444;2023-08-06T09:45:31;12.13;;;10.85;;
47289;SDS011;33197;52.524;13.444;2023-08-06T09:50:31;11.05;;;9.93;;
47289;SDS011;33197;52.524;13.444;2023-08-06T09:52:59;10.05;;;9.05;;
47289;SDS011;33197;52.524;13.444;2023-08-06T09:55:27;10.32;;;8.13;;
47289;SDS011;33197;52.524;13.444;2023-08-06T09:57:55;8.88;;;8.07;;
47289;SDS011;33197;52.524;13.444;2023-08-06T10:00:23;8.13;;;7.32;;
47289;SDS011;33197;52.524;13.444;2023-08-06T10:02:50;6.82;;;6.22;;
47289;SDS011;33197;52.524;13.444;2023-08-06T10:05:22;8.77;;;7.32;;
47289;SDS011;33197;52.524;13.444;2023-08-06T10:07:49;6.45;;;5.85;;
47289;SDS011;33197;52.524;13.444;2023-08-06T10:10:20;7.55;;;5.32;;
47289;SDS011;33197;52.524;13.444;2023-08-06T10:12:48;5.53;;;5.03;;
47289;SDS011;33197;52.524;13.444;2023-08-06T10:15:17;6.93;;;6.00;;
47289;SDS011;33197;52.524;13.444;2023-08-06T10:17:48;5.72;;;5.22;;
47289;SDS011;33197;52.524;13.444;2023-08-06T10:20:18;8.10;;;6.05;;
47289;SDS011;33197;52.524;13.444;2023-08-06T10:23:00;6.45;;;5.78;;
47289;SDS011;33197;52.524;13.444;2023-08-06T10:25:32;6.05;;;4.93;;
47289;SDS011;33197;52.524;13.444;2023-08-06T10:28:01;6.43;;;4.63;;
47289;SDS011;33197;52.524;13.444;2023-08-06T10:30:40;4.30;;;3.90;;
47289;SDS011;33197;52.524;13.444;2023-08-06T10:33:14;6.82;;;4.93;;
47289;SDS011;33197;52.524;13.444;2023-08-06T10:35:44;4.05;;;3.67;;
47289;SDS011;33197;52.524;13.444;2023-08-06T10:38:13;6.00;;;4.18;;
47289;SDS011;33197;52.524;13.444;2023-08-06T10:40:43;8.90;;;7.10;;
47289;SDS011;33197;52.524;13.444;2023-08-06T10:45:59;4.20;;;3.78;;
47289;SDS011;33197;52.524;13.444;2023-08-06T10:48:28;5.15;;;3.40;;
47289;SDS011;33197;52.524;13.444;2023-08-06T10:51:09;3.95;;;3.58;;
47289;SDS011;33197;52.524;13.444;2023-08-06T10:53:38;8.90;;;3.47;;
47289;SDS011;33197;52.524;13.444;2023-08-06T10:56:12;3.58;;;3.28;;
47289;SDS011;33197;52.524;13.444;2023-08-06T10:58:43;3.67;;;3.37;;
47289;SDS011;33197;52.524;13.444;2023-08-06T11:01:11;4.70;;;4.05;;
47289;SDS011;33197;52.524;13.444;2023-08-06T11:03:39;4.10;;;3.67;;
47289;SDS011;33197;52.524;13.444;2023-08-06T11:06:07;4.20;;;3.80;;
47289;SDS011;33197;52.524;13.444;2023-08-06T11:08:35;4.35;;;3.70;;
47289;SDS011;33197;52.524;13.444;2023-08-06T11:11:13;4.53;;;3.83;;
47289;SDS011;33197;52.524;13.444;2023-08-06T11:13:42;4.07;;;3.70;;
47289;SDS011;33197;52.524;13.444;2023-08-06T11:16:14;4.80;;;4.35;;
47289;SDS011;33197;52.524;13.444;2023-08-06T11:18:43;6.85;;;4.30;;
47289;SDS011;33197;52.524;13.444;2023-08-06T11:21:11;4.50;;;3.83;;
47289;SDS011;33197;52.524;13.444;2023-08-06T11:23:41;4.55;;;4.00;;
47289;SDS011;33197;52.524;13.444;2023-08-06T11:26:08;5.28;;;4.75;;
47289;SDS011;33197;52.524;13.444;2023-08-06T11:28:46;5.75;;;5.10;;
47289;SDS011;33197;52.524;13.444;2023-08-06T11:31:21;5.82;;;5.32;;
47289;SDS011;33197;52.524;13.444;2023-08-06T11:33:50;6.68;;;5.00;;
47289;SDS011;33197;52.524;13.444;2023-08-06T11:36:28;5.97;;;4.93;;
47289;SDS011;33197;52.524;13.444;2023-08-06T11:39:00;5.35;;;4.65;;
47289;SDS011;33197;52.524;13.444;2023-08-06T11:41:28;5.50;;;4.70;;
47289;SDS011;33197;52.524;13.444;2023-08-06T11:43:56;6.57;;;4.95;;
47289;SDS011;33197;52.524;13.444;2023-08-06T11:46:23;7.78;;;5.20;;
47289;SDS011;33197;52.524;13.444;2023-08-06T11:48:52;5.78;;;5.28;;
47289;SDS011;33197;52.524;13.444;2023-08-06T11:51:23;5.60;;;5.05;;
47289;SDS011;33197;52.524;13.444;2023-08-06T11:53:53;7.20;;;5.05;;
47289;SDS011;33197;52.524;13.444;2023-08-06T11:56:24;5.93;;;5.25;;
47289;SDS011;33197;52.524;13.444;2023-08-06T11:58:53;5.50;;;4.90;;
47289;SDS011;33197;52.524;13.444;2023-08-06T12:01:21;5.80;;;5.22;;
47289;SDS011;33197;52.524;13.444;2023-08-06T12:03:48;6.95;;;5.50;;
47289;SDS011;33197;52.524;13.444;2023-08-06T12:06:16;6.78;;;6.00;;
47289;SDS011;33197;52.524;13.444;2023-08-06T12:08:43;5.80;;;5.15;;
47289;SDS011;33197;52.524;13.444;2023-08-06T12:11:11;10.27;;;6.22;;
47289;SDS011;33197;52.524;13.444;2023-08-06T12:13:38;6.90;;;6.22;;
47289;SDS011;33197;52.524;13.444;2023-08-06T12:16:05;6.80;;;6.20;;
47289;SDS011;33197;52.524;13.444;2023-08-06T12:18:32;7.97;;;6.00;;
47289;SDS011;33197;52.524;13.444;2023-08-06T12:21:00;7.18;;;6.50;;
47289;SDS011;33197;52.524;13.444;2023-08-06T12:23:27;6.40;;;5.88;;
47289;SDS011;33197;52.524;13.444;2023-08-06T12:25:54;7.68;;;6.53;;
47289;SDS011;33197;52.524;13.444;2023-08-06T12:28:22;8.75;;;6.93;;
47289;SDS011;33197;52.524;13.444;2023-08-06T12:30:50;7.60;;;6.78;;
47289;SDS011;33197;52.524;13.444;2023-08-06T12:33:18;6.97;;;6.30;;
47289;SDS011;33197;52.524;13.444;2023-08-06T12:35:45;6.38;;;5.78;;
47289;SDS011;33197;52.524;13.444;2023-08-06T12:38:13;6.93;;;6.25;;
47289;SDS011;33197;52.524;13.444;2023-08-06T12:40:40;6.72;;;6.03;;
47289;SDS011;33197;52.524;13.444;2023-08-06T12:43:10;7.47;;;6.68;;
47289;SDS011;33197;52.524;13.444;2023-08-06T12:45:37;9.10;;;6.28;;
47289;SDS011;33197;52.524;13.444;2023-08-06T12:48:04;7.55;;;6.05;;
47289;SDS011;33197;52.524;13.444;2023-08-06T12:50:31;7.13;;;6.53;;
47289;SDS011;33197;52.524;13.444;2023-08-06T12:53:00;6.32;;;5.82;;
47289;SDS011;33197;52.524;13.444;2023-08-06T12:55:28;5.90;;;5.40;;
47289;SDS011;33197;52.524;13.444;2023-08-06T12:57:59;7.80;;;7.00;;
47289;SDS011;33197;52.524;13.444;2023-08-06T13:00:26;7.35;;;6.57;;
47289;SDS011;33197;52.524;13.444;2023-08-06T13:02:54;7.75;;;6.13;;
47289;SDS011;33197;52.524;13.444;2023-08-06T13:05:21;7.88;;;7.07;;
47289;SDS011;33197;52.524;13.444;2023-08-06T13:07:48;8.23;;;6.70;;
47289;SDS011;33197;52.524;13.444;2023-08-06T13:10:16;8.57;;;6.85;;
47289;SDS011;33197;52.524;13.444;2023-08-06T13:12:43;8.45;;;6.70;;
47289;SDS011;33197;52.524;13.444;2023-08-06T13:15:10;6.80;;;6.10;;
47289;SDS011;33197;52.524;13.444;2023-08-06T13:17:38;7.57;;;6.22;;
47289;SDS011;33197;52.524;13.444;2023-08-06T13:20:05;9.30;;;6.57;;
47289;SDS011;33197;52.524;13.444;2023-08-06T13:22:33;7.13;;;6.40;;
47289;SDS011;33197;52.524;13.444;2023-08-06T13:25:00;9.07;;;7.65;;
47289;SDS011;33197;52.524;13.444;2023-08-06T13:27:27;7.60;;;6.90;;
47289;SDS011;33197;52.524;13.444;2023-08-06T13:29:55;9.90;;;6.57;;
47289;SDS011;33197;52.524;13.444;2023-08-06T13:32:22;11.23;;;6.60;;
47289;SDS011;33197;52.524;13.444;2023-08-06T13:34:50;7.85;;;6.25;;
47289;SDS011;33197;52.524;13.444;2023-08-06T13:37:17;8.02;;;6.47;;
47289;SDS011;33197;52.524;13.444;2023-08-06T13:39:44;7.75;;;6.20;;
47289;SDS011;33197;52.524;13.444;2023-08-06T13:42:11;7.82;;;6.45;;
47289;SDS011;33197;52.524;13.444;2023-08-06T13:44:39;7.90;;;6.00;;
47289;SDS011;33197;52.524;13.444;2023-08-06T13:47:06;7.38;;;6.72;;
47289;SDS011;33197;52.524;13.444;2023-08-06T13:49:33;11.73;;;6.40;;
47289;SDS011;33197;52.524;13.444;2023-08-06T13:52:00;8.65;;;6.63;;
47289;SDS011;33197;52.524;13.444;2023-08-06T13:54:47;8.25;;;5.35;;
47289;SDS011;33197;52.524;13.444;2023-08-06T13:57:14;9.23;;;5.97;;
47289;SDS011;33197;52.524;13.444;2023-08-06T13:59:41;8.43;;;5.85;;
47289;SDS011;33197;52.524;13.444;2023-08-06T14:02:12;8.88;;;5.97;;
47289;SDS011;33197;52.524;13.444;2023-08-06T14:04:39;6.78;;;5.65;;
47289;SDS011;33197;52.524;13.444;2023-08-06T14:07:07;10.30;;;6.57;;
47289;SDS011;33197;52.524;13.444;2023-08-06T14:09:34;6.15;;;5.45;;
47289;SDS011;33197;52.524;13.444;2023-08-06T14:12:02;6.40;;;5.63;;
47289;SDS011;33197;52.524;13.444;2023-08-06T14:14:30;6.88;;;5.55;;
47289;SDS011;33197;52.524;13.444;2023-08-06T14:16:57;7.45;;;5.72;;
47289;SDS011;33197;52.524;13.444;2023-08-06T14:19:25;7.38;;;6.18;;
47289;SDS011;33197;52.524;13.444;2023-08-06T14:21:52;8.30;;;5.70;;
47289;SDS011;33197;52.524;13.444;2023-08-06T14:24:20;7.63;;;4.93;;
47289;SDS011;33197;52.524;13.444;2023-08-06T14:26:47;6.07;;;4.90;;
47289;SDS011;33197;52.524;13.444;2023-08-06T14:29:15;6.97;;;4.45;;
47289;SDS011;33197;52.524;13.444;2023-08-06T14:31:42;5.30;;;4.38;;
47289;SDS011;33197;52.524;13.444;2023-08-06T14:34:10;6.57;;;3.83;;
47289;SDS011;33197;52.524;13.444;2023-08-06T14:36:37;6.90;;;4.55;;
47289;SDS011;33197;52.524;13.444;2023-08-06T14:39:05;5.85;;;5.25;;
47289;SDS011;33197;52.524;13.444;2023-08-06T14:41:32;5.13;;;4.40;;
47289;SDS011;33197;52.524;13.444;2023-08-06T14:43:59;6.13;;;4.10;;
47289;SDS011;33197;52.524;13.444;2023-08-06T14:46:26;6.93;;;4.30;;
47289;SDS011;33197;52.524;13.444;2023-08-06T14:48:53;6.07;;;3.97;;